createdAt,value
2023-04-01T00:00:55.782Z,224.30
2023-04-01T00:01:55.793Z,223.20
2023-04-01T00:02:55.810Z,220.70
2023-04-01T00:03:55.890Z,209.90
2023-04-01T00:04:55.743Z,201.10
2023-04-01T00:05:55.761Z,208.90
2023-04-01T00:06:55.724Z,206.10
2023-04-01T00:07:55.719Z,201.70
2023-04-01T00:08:55.730Z,204.80
2023-04-01T00:09:55.701Z,211.70
2023-04-01T00:10:55.687Z,215.90
2023-04-01T00:11:55.676Z,224.60
2023-04-01T00:12:55.679Z,221.70
2023-04-01T00:13:55.691Z,226.90
2023-04-01T00:14:55.652Z,225.90
2023-04-01T00:15:56.197Z,231.80
2023-04-01T00:16:55.652Z,237.30
2023-04-01T00:17:55.642Z,225.60
2023-04-01T00:18:55.636Z,225.50
2023-04-01T00:19:55.591Z,221.80
2023-04-01T00:20:55.606Z,213.20
2023-04-01T00:21:55.590Z,211.90
2023-04-01T00:22:55.576Z,215.00
2023-04-01T00:23:55.556Z,223.00
2023-04-01T00:24:55.585Z,230.10
2023-04-01T00:25:55.547Z,218.70
2023-04-01T00:26:55.530Z,227.00
2023-04-01T00:27:55.508Z,224.10
2023-04-01T00:28:55.537Z,216.20
2023-04-01T00:29:55.520Z,216.40
2023-04-01T00:30:55.488Z,214.80
2023-04-01T00:31:55.470Z,202.80
2023-04-01T00:32:55.530Z,207.40
2023-04-01T00:33:55.506Z,213.70
2023-04-01T00:34:55.488Z,199.90
2023-04-01T00:35:55.467Z,198.70
2023-04-01T00:36:55.426Z,206.20
2023-04-01T00:37:55.435Z,210.60
2023-04-01T00:38:55.416Z,222.80
2023-04-01T00:39:55.425Z,213.50
2023-04-01T00:40:55.385Z,213.50
2023-04-01T00:41:55.399Z,217.70
2023-04-01T00:42:55.370Z,225.60
2023-04-01T00:43:55.358Z,217.40
2023-04-01T00:44:55.384Z,209.90
2023-04-01T00:45:55.344Z,206.40
2023-04-01T00:46:55.388Z,210.50
2023-04-01T00:47:55.349Z,225.70
2023-04-01T00:48:55.321Z,227.80
2023-04-01T00:49:55.329Z,230.20
2023-04-01T00:50:55.307Z,216.90
2023-04-01T00:51:55.285Z,222.60
2023-04-01T00:52:55.270Z,229.80
2023-04-01T00:53:55.275Z,228.40
2023-04-01T00:54:55.277Z,221.90
2023-04-01T00:55:55.269Z,221.60
2023-04-01T00:56:55.273Z,227.00
2023-04-01T00:57:55.208Z,221.60
2023-04-01T00:58:55.208Z,210.70
2023-04-01T00:59:55.215Z,210.20
2023-04-01T01:00:55.250Z,213.40
2023-04-01T01:01:55.244Z,206.10
2023-04-01T01:02:55.165Z,214.20
2023-04-01T01:03:55.148Z,208.00
2023-04-01T01:04:55.170Z,209.30
2023-04-01T01:05:55.149Z,205.40
2023-04-01T01:06:55.123Z,210.40
2023-04-01T01:07:55.185Z,207.60
2023-04-01T01:08:55.099Z,205.10
2023-04-01T01:09:55.108Z,204.90
2023-04-01T01:10:55.114Z,213.00
2023-04-01T01:11:55.079Z,201.80
2023-04-01T01:12:55.077Z,210.60
2023-04-01T01:13:55.038Z,221.50
2023-04-01T01:14:55.060Z,217.70
2023-04-01T01:15:55.077Z,217.50
2023-04-01T01:16:55.150Z,218.90
2023-04-01T01:17:55.043Z,225.60
2023-04-01T01:18:55.051Z,213.90
2023-04-01T01:19:55.025Z,203.30
2023-04-01T01:20:54.977Z,205.20
2023-04-01T01:21:55.035Z,209.20
2023-04-01T01:22:54.959Z,214.40
2023-04-01T01:23:54.986Z,204.00
2023-04-01T01:24:54.950Z,213.30
2023-04-01T01:25:54.932Z,212.60
2023-04-01T01:26:54.920Z,206.10
2023-04-01T01:27:54.909Z,214.80
2023-04-01T01:28:54.896Z,219.50
2023-04-01T01:29:54.934Z,218.40
2023-04-01T01:30:54.938Z,220.40
2023-04-01T01:31:54.879Z,215.70
2023-04-01T01:32:54.893Z,215.00
2023-04-01T01:33:54.844Z,208.30
2023-04-01T01:34:54.881Z,212.90
2023-04-01T01:35:54.850Z,207.40
2023-04-01T01:36:54.854Z,204.20
2023-04-01T01:37:54.807Z,199.60
2023-04-01T01:38:54.789Z,213.70
2023-04-01T01:39:54.794Z,209.50
2023-04-01T01:40:54.800Z,213.80
2023-04-01T01:41:54.773Z,214.10
2023-04-01T01:42:54.749Z,204.10
2023-04-01T01:43:54.737Z,200.50
2023-04-01T01:44:54.766Z,199.00
2023-04-01T01:45:54.737Z,204.40
2023-04-01T01:46:54.715Z,210.20
2023-04-01T01:47:54.809Z,200.70
2023-04-01T01:48:54.690Z,203.10
2023-04-01T01:49:54.802Z,213.50
2023-04-01T01:50:54.670Z,222.20
2023-04-01T01:51:54.656Z,224.00
2023-04-01T01:52:54.654Z,218.00
2023-04-01T01:53:54.643Z,210.30
2023-04-01T01:54:54.677Z,206.70
2023-04-01T01:55:54.630Z,205.30
2023-04-01T01:56:54.685Z,207.50
2023-04-01T01:57:54.587Z,214.70
2023-04-01T01:58:54.610Z,215.80
2023-04-01T01:59:54.603Z,209.60
2023-04-01T02:00:54.578Z,217.70
2023-04-01T02:01:54.607Z,206.10
2023-04-01T02:02:54.597Z,206.20
2023-04-01T02:03:54.535Z,202.30
2023-04-01T02:04:54.652Z,201.50
2023-04-01T02:05:54.524Z,211.20
2023-04-01T02:06:54.513Z,224.30
2023-04-01T02:07:54.501Z,225.00
2023-04-01T02:08:54.518Z,229.30
2023-04-01T02:09:54.526Z,225.10
2023-04-01T02:10:54.492Z,227.00
2023-04-01T02:11:54.463Z,235.10
2023-04-01T02:12:54.456Z,244.40
2023-04-01T02:13:54.442Z,241.10
2023-04-01T02:14:54.449Z,237.70
2023-04-01T02:15:54.531Z,236.80
2023-04-01T02:16:54.495Z,230.80
2023-04-01T02:17:54.421Z,231.10
2023-04-01T02:18:54.384Z,238.40
2023-04-01T02:19:54.362Z,237.40
2023-04-01T02:20:54.440Z,238.70
2023-04-01T02:21:54.384Z,247.00
2023-04-01T02:22:54.354Z,242.60
2023-04-01T02:23:54.330Z,237.60
2023-04-01T02:24:54.338Z,238.30
2023-04-01T02:25:54.344Z,244.90
2023-04-01T02:26:54.308Z,242.20
2023-04-01T02:27:54.281Z,249.90
2023-04-01T02:28:54.288Z,242.00
2023-04-01T02:29:54.348Z,248.30
2023-04-01T02:30:54.304Z,253.60
2023-04-01T02:31:54.343Z,246.50
2023-04-01T02:32:54.283Z,237.60
2023-04-01T02:33:54.234Z,231.00
2023-04-01T02:35:00.698Z,228.10
2023-04-01T02:35:54.267Z,235.10
2023-04-01T02:36:54.198Z,236.10
2023-04-01T02:37:54.184Z,245.10
2023-04-01T02:38:54.174Z,240.80
2023-04-01T02:39:54.179Z,246.10
2023-04-01T02:40:54.184Z,251.40
2023-04-01T02:41:54.165Z,254.10
2023-04-01T02:42:54.144Z,250.60
2023-04-01T02:43:54.143Z,247.80
2023-04-01T02:44:54.130Z,238.80
2023-04-01T02:45:54.153Z,243.60
2023-04-01T02:46:54.182Z,240.90
2023-04-01T02:47:54.158Z,246.90
2023-04-01T02:48:54.134Z,251.80
2023-04-01T02:49:54.090Z,246.20
2023-04-01T02:50:54.087Z,243.80
2023-04-01T02:51:54.046Z,239.80
2023-04-01T02:52:54.055Z,246.40
2023-04-01T02:53:54.027Z,251.40
2023-04-01T02:54:54.022Z,253.90
2023-04-01T02:55:54.073Z,254.10
2023-04-01T02:56:54.028Z,244.30
2023-04-01T02:57:53.989Z,242.00
2023-04-01T02:58:53.999Z,237.80
2023-04-01T02:59:54.038Z,246.70
2023-04-01T03:00:53.993Z,242.90
2023-04-01T03:01:53.999Z,240.70
2023-04-01T03:02:54.020Z,238.50
2023-04-01T03:03:53.934Z,227.70
2023-04-01T03:04:53.941Z,233.90
2023-04-01T03:05:53.912Z,237.60
2023-04-01T03:06:53.934Z,230.90
2023-04-01T03:07:53.918Z,231.80
2023-04-01T03:08:53.904Z,228.10
2023-04-01T03:09:53.893Z,227.90
2023-04-01T03:10:53.865Z,229.20
2023-04-01T03:11:53.874Z,224.80
2023-04-01T03:12:53.842Z,231.90
2023-04-01T03:13:53.837Z,227.40
2023-04-01T03:14:53.823Z,229.60
2023-04-01T03:15:53.820Z,227.10
2023-04-01T03:16:53.932Z,223.30
2023-04-01T03:17:53.846Z,225.10
2023-04-01T03:18:53.789Z,223.60
2023-04-01T03:19:53.773Z,222.80
2023-04-01T03:20:53.779Z,221.60
2023-04-01T03:21:53.814Z,219.20
2023-04-01T03:22:53.745Z,219.20
2023-04-01T03:23:53.740Z,215.60
2023-04-01T03:24:53.708Z,216.00
2023-04-01T03:25:53.704Z,219.10
2023-04-01T03:26:53.709Z,218.50
2023-04-01T03:27:53.705Z,223.70
2023-04-01T03:28:53.695Z,218.30
2023-04-01T03:29:53.706Z,215.30
2023-04-01T03:30:53.739Z,213.60
2023-04-01T03:31:53.653Z,207.30
2023-04-01T03:32:53.668Z,210.40
2023-04-01T03:33:53.655Z,209.20
2023-04-01T03:34:53.618Z,213.00
2023-04-01T03:35:53.674Z,205.50
2023-04-01T03:36:53.628Z,206.30
2023-04-01T03:37:53.638Z,213.80
2023-04-01T03:38:53.590Z,211.80
2023-04-01T03:39:53.561Z,210.60
2023-04-01T03:40:53.556Z,213.90
2023-04-01T03:41:53.551Z,209.80
2023-04-01T03:42:53.577Z,212.10
2023-04-01T03:43:53.507Z,214.30
2023-04-01T03:44:53.534Z,208.90
2023-04-01T03:45:53.519Z,210.10
2023-04-01T03:46:53.543Z,207.70
2023-04-01T03:47:53.535Z,204.20
2023-04-01T03:48:53.491Z,209.20
2023-04-01T03:49:53.445Z,207.30
2023-04-01T03:50:53.469Z,210.10
2023-04-01T03:51:53.467Z,207.00
2023-04-01T03:52:53.454Z,204.40
2023-04-01T03:53:53.416Z,198.50
2023-04-01T03:54:53.429Z,200.90
2023-04-01T03:55:53.393Z,210.10
2023-04-01T03:56:53.398Z,204.00
2023-04-01T03:57:53.395Z,198.00
2023-04-01T03:58:53.414Z,199.90
2023-04-01T03:59:53.355Z,202.90
2023-04-01T04:00:53.374Z,206.40
2023-04-01T04:01:53.339Z,201.00
2023-04-01T04:02:53.438Z,199.00
2023-04-01T04:03:53.565Z,191.50
2023-04-01T04:04:53.318Z,195.40
2023-04-01T04:05:53.323Z,197.40
2023-04-01T04:06:53.303Z,194.20
2023-04-01T04:07:53.337Z,197.70
2023-04-01T04:08:53.259Z,198.00
2023-04-01T04:09:53.242Z,197.60
2023-04-01T04:10:53.238Z,197.90
2023-04-01T04:11:53.222Z,200.10
2023-04-01T04:12:53.252Z,197.20
2023-04-01T04:13:53.260Z,201.90
2023-04-01T04:14:53.218Z,199.30
2023-04-01T04:15:53.204Z,207.60
2023-04-01T04:16:53.185Z,211.10
2023-04-01T04:17:53.334Z,205.40
2023-04-01T04:18:53.158Z,198.10
2023-04-01T04:19:53.218Z,197.40
2023-04-01T04:20:53.174Z,200.20
2023-04-01T04:21:53.124Z,201.80
2023-04-01T04:22:53.137Z,200.50
2023-04-01T04:23:53.104Z,199.10
2023-04-01T04:24:53.104Z,195.90
2023-04-01T04:25:53.089Z,197.20
2023-04-01T04:26:53.076Z,192.20
2023-04-01T04:27:53.083Z,190.90
2023-04-01T04:28:53.074Z,188.00
2023-04-01T04:29:53.052Z,184.40
2023-04-01T04:30:53.052Z,197.50
2023-04-01T04:31:53.089Z,200.10
2023-04-01T04:32:53.066Z,198.10
2023-04-01T04:33:53.058Z,195.70
2023-04-01T04:34:52.978Z,194.50
2023-04-01T04:35:52.984Z,190.10
2023-04-01T04:36:52.985Z,189.70
2023-04-01T04:37:53.080Z,191.50
2023-04-01T04:38:52.979Z,194.50
2023-04-01T04:39:52.877Z,193.40
2023-04-01T04:40:52.942Z,197.60
2023-04-01T04:41:52.916Z,195.20
2023-04-01T04:42:52.931Z,187.60
2023-04-01T04:43:52.910Z,190.80
2023-04-01T04:44:52.878Z,194.60
2023-04-01T04:45:52.915Z,192.50
2023-04-01T04:46:53.042Z,192.10
2023-04-01T04:47:52.925Z,188.30
2023-04-01T04:48:52.811Z,192.10
2023-04-01T04:49:52.837Z,192.40
2023-04-01T04:50:52.822Z,193.20
2023-04-01T04:51:52.765Z,189.90
2023-04-01T04:52:52.805Z,180.30
2023-04-01T04:53:53.188Z,185.00
2023-04-01T04:54:52.735Z,195.10
2023-04-01T04:55:52.755Z,193.10
2023-04-01T04:56:52.758Z,193.20
2023-04-01T04:57:52.716Z,192.60
2023-04-01T04:58:52.714Z,193.30
2023-04-01T04:59:52.728Z,191.90
2023-04-01T05:00:52.735Z,196.00
2023-04-01T05:01:52.869Z,201.30
2023-04-01T05:02:52.822Z,194.00
2023-04-01T05:03:52.680Z,194.40
2023-04-01T05:04:52.614Z,197.00
2023-04-01T05:05:52.615Z,191.00
2023-04-01T05:06:52.646Z,193.30
2023-04-01T05:07:52.586Z,201.00
2023-04-01T05:08:52.608Z,197.30
2023-04-01T05:09:52.608Z,199.60
2023-04-01T05:10:52.565Z,190.60
2023-04-01T05:11:52.546Z,193.40
2023-04-01T05:12:52.544Z,198.50
2023-04-01T05:13:52.568Z,197.20
2023-04-01T05:14:52.532Z,204.30
2023-04-01T05:15:52.516Z,203.60
2023-04-01T05:16:52.522Z,202.00
2023-04-01T05:17:52.528Z,202.70
2023-04-01T05:18:52.495Z,201.70
2023-04-01T05:19:52.462Z,202.90
2023-04-01T05:20:52.467Z,200.50
2023-04-01T05:21:52.451Z,199.80
2023-04-01T05:22:52.440Z,199.10
2023-04-01T05:23:52.479Z,198.90
2023-04-01T05:24:52.439Z,193.40
2023-04-01T05:25:52.409Z,194.30
2023-04-01T05:26:52.637Z,195.50
2023-04-01T05:27:52.390Z,199.30
2023-04-01T05:28:52.420Z,202.30
2023-04-01T05:29:52.369Z,199.30
2023-04-01T05:30:52.393Z,191.30
2023-04-01T05:31:52.336Z,193.30
2023-04-01T05:32:52.379Z,196.30
2023-04-01T05:33:52.345Z,197.00
2023-04-01T05:34:52.346Z,191.50
2023-04-01T05:35:52.319Z,191.20
2023-04-01T05:36:52.287Z,193.50
2023-04-01T05:37:52.318Z,189.50
2023-04-01T05:38:52.288Z,196.40
2023-04-01T05:39:52.250Z,185.40
2023-04-01T05:40:52.266Z,183.80
2023-04-01T05:41:52.280Z,189.00
2023-04-01T05:42:52.233Z,194.50
2023-04-01T05:43:52.246Z,189.80
2023-04-01T05:44:52.213Z,184.90
2023-04-01T05:45:52.237Z,192.30
2023-04-01T05:46:52.193Z,197.00
2023-04-01T05:47:52.233Z,198.60
2023-04-01T05:48:52.201Z,200.90
2023-04-01T05:49:52.152Z,188.20
2023-04-01T05:50:52.148Z,187.30
2023-04-01T05:51:52.156Z,186.90
2023-04-01T05:52:52.120Z,195.10
2023-04-01T05:53:52.168Z,196.10
2023-04-01T05:54:52.097Z,189.70
2023-04-01T05:55:52.104Z,189.70
2023-04-01T05:56:52.131Z,191.60
2023-04-01T05:57:52.068Z,191.50
2023-04-01T05:58:52.082Z,189.20
2023-04-01T05:59:52.069Z,192.70
2023-04-01T06:01:05.867Z,204.60
2023-04-01T06:01:52.052Z,202.10
2023-04-01T06:02:52.111Z,191.30
2023-04-01T06:03:52.290Z,191.80
2023-04-01T06:04:52.123Z,189.20
2023-04-01T06:05:51.984Z,196.40
2023-04-01T06:06:51.982Z,188.40
2023-04-01T06:07:51.971Z,187.50
2023-04-01T06:08:51.967Z,191.20
2023-04-01T06:09:51.968Z,193.40
2023-04-01T06:10:51.926Z,188.70
2023-04-01T06:11:51.935Z,191.10
2023-04-01T06:12:51.921Z,192.60
2023-04-01T06:13:51.958Z,193.10
2023-04-01T06:14:51.945Z,184.70
2023-04-01T06:15:51.951Z,180.60
2023-04-01T06:16:51.859Z,187.90
2023-04-01T06:17:51.900Z,193.00
2023-04-01T06:18:51.856Z,194.50
2023-04-01T06:19:51.881Z,192.70
2023-04-01T06:20:51.875Z,192.40
2023-04-01T06:21:51.833Z,196.00
2023-04-01T06:22:51.969Z,189.40
2023-04-01T06:23:51.807Z,195.50
2023-04-01T06:24:51.811Z,200.00
2023-04-01T06:25:51.788Z,198.30
2023-04-01T06:26:51.774Z,187.00
2023-04-01T06:27:51.786Z,194.70
2023-04-01T06:28:51.800Z,187.40
2023-04-01T06:29:51.848Z,196.40
2023-04-01T06:30:51.728Z,196.90
2023-04-01T06:31:51.759Z,195.70
2023-04-01T06:32:51.930Z,198.70
2023-04-01T06:33:51.714Z,197.70
2023-04-01T06:34:51.714Z,189.00
2023-04-01T06:35:51.732Z,196.10
2023-04-01T06:36:51.685Z,200.50
2023-04-01T06:37:51.668Z,198.00
2023-04-01T06:38:51.639Z,193.80
2023-04-01T06:39:51.684Z,199.80
2023-04-01T06:40:51.615Z,200.50
2023-04-01T06:41:51.637Z,197.90
2023-04-01T06:42:51.600Z,193.50
2023-04-01T06:43:51.624Z,191.60
2023-04-01T06:44:51.604Z,200.30
2023-04-01T06:45:51.721Z,208.90
2023-04-01T06:46:51.670Z,199.70
2023-04-01T06:47:51.600Z,201.10
2023-04-01T06:48:51.613Z,197.00
2023-04-01T06:49:51.554Z,193.80
2023-04-01T06:50:51.553Z,198.10
2023-04-01T06:51:51.505Z,199.00
2023-04-01T06:52:51.539Z,206.40
2023-04-01T06:53:51.571Z,208.40
2023-04-01T06:54:51.522Z,192.90
2023-04-01T06:55:51.476Z,192.00
2023-04-01T06:56:51.486Z,196.20
2023-04-01T06:57:51.463Z,195.60
2023-04-01T06:58:51.505Z,195.20
2023-04-01T06:59:51.493Z,202.90
2023-04-01T07:00:51.454Z,203.00
2023-04-01T07:01:51.449Z,193.00
2023-04-01T07:02:51.496Z,204.70
2023-04-01T07:03:51.443Z,208.70
2023-04-01T07:04:51.389Z,187.60
2023-04-01T07:05:51.447Z,182.20
2023-04-01T07:06:51.411Z,190.40
2023-04-01T07:07:51.340Z,192.70
2023-04-01T07:08:51.341Z,193.00
2023-04-01T07:09:51.351Z,193.00
2023-04-01T07:10:51.386Z,203.30
2023-04-01T07:11:51.310Z,212.30
2023-04-01T07:12:51.343Z,211.60
2023-04-01T07:13:51.318Z,209.50
2023-04-01T07:14:51.318Z,199.70
2023-04-01T07:15:51.258Z,209.10
2023-04-01T07:16:51.335Z,201.50
2023-04-01T07:17:51.266Z,197.10
2023-04-01T07:18:51.227Z,191.70
2023-04-01T07:19:51.320Z,192.30
2023-04-01T07:20:51.247Z,203.20
2023-04-01T07:21:51.213Z,202.20
2023-04-01T07:22:51.234Z,197.50
2023-04-01T07:23:51.169Z,199.80
2023-04-01T07:24:51.170Z,199.30
2023-04-01T07:25:51.171Z,182.30
2023-04-01T07:26:51.150Z,199.10
2023-04-01T07:27:51.130Z,201.60
2023-04-01T07:28:51.163Z,195.60
2023-04-01T07:29:51.111Z,190.20
2023-04-01T07:30:51.191Z,193.20
2023-04-01T07:31:51.089Z,185.90
2023-04-01T07:32:51.098Z,183.50
2023-04-01T07:33:51.228Z,187.60
2023-04-01T07:34:51.056Z,188.80
2023-04-01T07:35:51.103Z,200.00
2023-04-01T07:36:51.058Z,201.50
2023-04-01T07:37:51.038Z,188.10
2023-04-01T07:38:51.046Z,192.90
2023-04-01T07:39:51.023Z,196.10
2023-04-01T07:40:51.012Z,198.00
2023-04-01T07:41:50.986Z,193.40
2023-04-01T07:42:50.993Z,184.70
2023-04-01T07:43:50.967Z,186.60
2023-04-01T07:44:50.962Z,188.00
2023-04-01T07:45:51.048Z,183.60
2023-04-01T07:46:50.960Z,186.50
2023-04-01T07:47:50.959Z,196.60
2023-04-01T07:48:50.922Z,197.70
2023-04-01T07:49:50.906Z,184.50
2023-04-01T07:50:51.975Z,190.30
2023-04-01T07:51:51.019Z,206.60
2023-04-01T07:52:50.874Z,210.80
2023-04-01T07:53:50.866Z,204.90
2023-04-01T07:54:50.869Z,190.40
2023-04-01T07:55:50.944Z,201.60
2023-04-01T07:56:50.904Z,204.80
2023-04-01T07:57:50.822Z,201.90
2023-04-01T07:58:50.829Z,200.60
2023-04-01T07:59:50.807Z,209.50
2023-04-01T08:00:50.812Z,216.30
2023-04-01T08:01:50.819Z,215.80
2023-04-01T08:02:50.898Z,214.70
2023-04-01T08:03:50.997Z,204.50
2023-04-01T08:04:50.820Z,201.00
2023-04-01T08:05:50.784Z,209.00
2023-04-01T08:06:50.743Z,203.80
2023-04-01T08:07:50.743Z,209.30
2023-04-01T08:08:50.713Z,212.40
2023-04-01T08:09:50.711Z,208.40
2023-04-01T08:10:50.738Z,213.50
2023-04-01T08:11:50.681Z,208.60
2023-04-01T08:12:50.701Z,222.70
2023-04-01T08:13:50.679Z,213.30
2023-04-01T08:14:50.673Z,204.60
2023-04-01T08:15:50.791Z,205.90
2023-04-01T08:16:52.075Z,205.60
2023-04-01T08:17:50.680Z,211.60
2023-04-01T08:18:50.613Z,206.60
2023-04-01T08:19:50.598Z,210.70
2023-04-01T08:20:50.604Z,219.50
2023-04-01T08:21:50.618Z,213.10
2023-04-01T08:22:50.562Z,218.00
2023-04-01T08:23:50.560Z,210.10
2023-04-01T08:24:50.540Z,198.40
2023-04-01T08:25:50.625Z,194.00
2023-04-01T08:26:50.523Z,202.20
2023-04-01T08:27:50.510Z,192.20
2023-04-01T08:28:50.492Z,204.50
2023-04-01T08:29:50.482Z,206.60
2023-04-01T08:30:50.472Z,203.80
2023-04-01T08:31:50.613Z,207.70
2023-04-01T08:32:50.562Z,207.50
2023-04-01T08:33:50.471Z,212.30
2023-04-01T08:34:50.443Z,203.50
2023-04-01T08:35:50.457Z,193.80
2023-04-01T08:36:50.433Z,195.80
2023-04-01T08:37:50.424Z,200.90
2023-04-01T08:38:50.407Z,210.20
2023-04-01T08:39:50.416Z,199.50
2023-04-01T08:40:50.371Z,196.50
2023-04-01T08:41:50.458Z,196.20
2023-04-01T08:42:50.355Z,179.00
2023-04-01T08:43:50.357Z,187.10
2023-04-01T08:44:50.344Z,193.80
2023-04-01T08:45:50.398Z,192.90
2023-04-01T08:46:50.345Z,194.40
2023-04-01T08:47:50.366Z,185.90
2023-04-01T08:48:50.339Z,192.20
2023-04-01T08:49:50.297Z,188.70
2023-04-01T08:50:50.347Z,196.10
2023-04-01T08:51:50.288Z,195.40
2023-04-01T08:52:50.269Z,191.50
2023-04-01T08:53:50.254Z,211.70
2023-04-01T08:54:50.262Z,209.40
2023-04-01T08:55:50.224Z,184.80
2023-04-01T08:56:50.253Z,173.00
2023-04-01T08:57:50.562Z,171.00
2023-04-01T08:58:50.222Z,167.80
2023-04-01T08:59:50.214Z,174.70
2023-04-01T09:00:50.196Z,185.30
2023-04-01T09:01:50.223Z,191.20
2023-04-01T09:02:50.233Z,187.30
2023-04-01T09:03:50.202Z,178.20
2023-04-01T09:04:50.154Z,173.20
2023-04-01T09:05:50.171Z,185.20
2023-04-01T09:06:50.139Z,176.50
2023-04-01T09:07:50.164Z,182.80
2023-04-01T09:08:50.181Z,189.30
2023-04-01T09:09:50.137Z,183.90
2023-04-01T09:10:50.091Z,168.30
2023-04-01T09:11:50.928Z,175.90
2023-04-01T09:12:50.057Z,177.20
2023-04-01T09:13:50.050Z,172.10
2023-04-01T09:14:50.036Z,176.50
2023-04-01T09:15:50.045Z,186.50
2023-04-01T09:16:50.033Z,198.00
2023-04-01T09:17:50.020Z,193.50
2023-04-01T09:18:49.986Z,201.60
2023-04-01T09:19:49.999Z,194.80
2023-04-01T09:20:49.979Z,177.80
2023-04-01T09:21:50.028Z,176.00
2023-04-01T09:22:49.971Z,184.80
2023-04-01T09:23:50.020Z,189.50
2023-04-01T09:24:49.947Z,178.10
2023-04-01T09:25:49.927Z,183.20
2023-04-01T09:26:49.935Z,175.40
2023-04-01T09:27:49.921Z,190.50
2023-04-01T09:28:49.890Z,181.70
2023-04-01T09:29:49.905Z,165.40
2023-04-01T09:30:49.889Z,139.70
2023-04-01T09:31:49.972Z,153.20
2023-04-01T09:32:49.934Z,159.50
2023-04-01T09:33:49.836Z,168.00
2023-04-01T09:34:49.846Z,168.00
2023-04-01T09:35:49.853Z,175.90
2023-04-01T09:36:49.820Z,189.60
2023-04-01T09:37:49.862Z,184.10
2023-04-01T09:38:49.822Z,189.70
2023-04-01T09:39:49.799Z,176.90
2023-04-01T09:40:49.829Z,179.20
2023-04-01T09:41:49.771Z,171.30
2023-04-01T09:42:49.770Z,169.80
2023-04-01T09:43:49.828Z,187.60
2023-04-01T09:44:49.831Z,188.50
2023-04-01T09:45:49.825Z,192.60
2023-04-01T09:46:49.766Z,188.70
2023-04-01T09:47:49.768Z,209.10
2023-04-01T09:48:49.704Z,196.50
2023-04-01T09:49:49.838Z,176.50
2023-04-01T09:50:49.665Z,187.50
2023-04-01T09:51:49.672Z,187.50
2023-04-01T09:52:49.681Z,192.00
2023-04-01T09:53:49.646Z,192.90
2023-04-01T09:54:49.639Z,198.40
2023-04-01T09:55:49.610Z,182.30
2023-04-01T09:56:49.697Z,190.80
2023-04-01T09:57:49.618Z,208.10
2023-04-01T09:58:49.591Z,204.20
2023-04-01T09:59:49.571Z,196.50
2023-04-01T10:00:49.575Z,196.00
2023-04-01T10:01:50.037Z,210.90
2023-04-01T10:02:49.650Z,217.60
2023-04-01T10:03:49.531Z,199.00
2023-04-01T10:04:49.560Z,193.90
2023-04-01T10:05:49.560Z,199.90
2023-04-01T10:06:49.517Z,205.40
2023-04-01T10:07:49.537Z,207.30
2023-04-01T10:08:49.525Z,214.90
2023-04-01T10:09:49.461Z,189.30
2023-04-01T10:10:49.465Z,181.70
2023-04-01T10:11:49.478Z,188.10
2023-04-01T10:12:49.496Z,179.00
2023-04-01T10:13:49.424Z,177.80
2023-04-01T10:14:49.461Z,194.60
2023-04-01T10:15:49.433Z,195.40
2023-04-01T10:16:51.153Z,204.20
2023-04-01T10:17:49.456Z,203.00
2023-04-01T10:18:49.429Z,186.30
2023-04-01T10:19:49.361Z,198.20
2023-04-01T10:20:49.361Z,202.30
2023-04-01T10:21:49.372Z,212.60
2023-04-01T10:22:49.407Z,218.30
2023-04-01T10:23:49.336Z,212.80
2023-04-01T10:24:49.349Z,218.40
2023-04-01T10:25:49.315Z,222.10
2023-04-01T10:26:49.403Z,213.40
2023-04-01T10:27:49.398Z,214.00
2023-04-01T10:28:49.303Z,219.80
2023-04-01T10:29:49.281Z,215.50
2023-04-01T10:30:49.261Z,218.90
2023-04-01T10:31:49.275Z,215.10
2023-04-01T10:32:49.310Z,205.70
2023-04-01T10:33:49.271Z,201.20
2023-04-01T10:34:49.219Z,194.00
2023-04-01T10:35:49.266Z,186.10
2023-04-01T10:36:49.194Z,177.40
2023-04-01T10:37:49.216Z,187.80
2023-04-01T10:38:49.192Z,168.60
2023-04-01T10:39:49.165Z,187.40
2023-04-01T10:40:49.247Z,205.40
2023-04-01T10:41:49.173Z,192.50
2023-04-01T10:42:49.149Z,195.10
2023-04-01T10:43:49.196Z,210.20
2023-04-01T10:44:49.121Z,212.80
2023-04-01T10:45:49.187Z,203.60
2023-04-01T10:46:49.107Z,174.80
2023-04-01T10:47:49.107Z,162.90
2023-04-01T10:48:49.264Z,165.50
2023-04-01T10:49:49.136Z,165.80
2023-04-01T10:50:49.058Z,150.50
2023-04-01T10:51:49.035Z,168.10
2023-04-01T10:52:49.039Z,151.80
2023-04-01T10:53:49.049Z,144.70
2023-04-01T10:54:49.001Z,157.10
2023-04-01T10:55:49.144Z,153.50
2023-04-01T10:56:48.987Z,147.80
2023-04-01T10:57:48.977Z,146.00
2023-04-01T10:58:48.991Z,156.10
2023-04-01T10:59:48.946Z,147.30
2023-04-01T11:00:49.072Z,137.90
2023-04-01T11:01:54.893Z,136.20
2023-04-01T11:02:49.018Z,124.10
2023-04-01T11:03:49.202Z,110.10
2023-04-01T11:04:48.917Z,110.20
2023-04-01T11:05:48.884Z,121.00
2023-04-01T11:06:49.819Z,125.00
2023-04-01T11:08:02.823Z,112.20
2023-04-01T11:08:48.885Z,112.20
2023-04-01T11:09:48.879Z,111.20
2023-04-01T11:10:48.841Z,124.10
2023-04-01T11:11:48.858Z,137.70
2023-04-01T11:12:48.855Z,149.90
2023-04-01T11:13:48.820Z,143.50
2023-04-01T11:14:48.806Z,148.50
2023-04-01T11:15:49.044Z,152.60
2023-04-01T11:16:48.788Z,156.30
2023-04-01T11:17:49.739Z,158.40
2023-04-01T11:18:48.782Z,160.60
2023-04-01T11:19:48.773Z,162.30
2023-04-01T11:20:48.748Z,166.20
2023-04-01T11:21:48.758Z,159.50
2023-04-01T11:22:48.739Z,157.80
2023-04-01T11:24:01.891Z,168.00
2023-04-01T11:24:48.721Z,180.70
2023-04-01T11:25:48.691Z,192.70
2023-04-01T11:26:48.751Z,183.40
2023-04-01T11:27:48.670Z,177.10
2023-04-01T11:28:48.735Z,190.40
2023-04-01T11:29:59.229Z,187.50
2023-04-01T11:30:48.642Z,180.60
2023-04-01T11:31:48.670Z,185.50
2023-04-01T11:32:49.936Z,181.80
2023-04-01T11:33:48.734Z,184.70
2023-04-01T11:34:48.610Z,192.10
2023-04-01T11:35:49.047Z,192.90
2023-04-01T11:36:48.650Z,166.90
2023-04-01T11:37:48.600Z,161.10
2023-04-01T11:38:48.581Z,178.70
2023-04-01T11:39:48.569Z,179.50
2023-04-01T11:40:48.604Z,191.40
2023-04-01T11:41:48.644Z,196.90
2023-04-01T11:42:48.560Z,185.40
2023-04-01T11:43:48.531Z,183.50
2023-04-01T11:44:48.526Z,181.40
2023-04-01T11:45:48.508Z,197.10
2023-04-01T11:46:48.606Z,200.90
2023-04-01T11:47:48.546Z,191.60
2023-04-01T11:48:48.468Z,186.10
2023-04-01T11:49:48.505Z,183.50
2023-04-01T11:50:48.433Z,185.50
2023-04-01T11:51:48.401Z,196.40
2023-04-01T11:52:48.437Z,179.60
2023-04-01T11:53:48.432Z,185.90
2023-04-01T11:54:48.631Z,213.60
2023-04-01T11:55:50.463Z,213.70
2023-04-01T11:56:48.398Z,208.20
2023-04-01T11:57:48.378Z,201.50
2023-04-01T11:58:48.347Z,195.10
2023-04-01T11:59:48.351Z,183.50
2023-04-01T12:00:48.315Z,201.90
2023-04-01T12:01:48.321Z,191.40
2023-04-01T12:02:48.395Z,194.50
2023-04-01T12:03:48.454Z,197.10
2023-04-01T12:04:48.358Z,189.30
2023-04-01T12:05:48.275Z,197.70
2023-04-01T12:06:48.360Z,194.80
2023-04-01T12:07:48.243Z,196.00
2023-04-01T12:08:48.267Z,207.90
2023-04-01T12:09:48.272Z,220.70
2023-04-01T12:10:48.367Z,210.80
2023-04-01T12:11:48.235Z,203.80
2023-04-01T12:13:00.062Z,205.30
2023-04-01T12:13:48.187Z,201.10
2023-04-01T12:14:48.222Z,203.10
2023-04-01T12:15:48.153Z,208.10
2023-04-01T12:16:48.269Z,202.10
2023-04-01T12:17:48.180Z,204.10
2023-04-01T12:18:48.150Z,198.30
2023-04-01T12:19:48.186Z,192.10
2023-04-01T12:20:48.135Z,188.30
2023-04-01T12:21:48.110Z,187.60
2023-04-01T12:22:48.109Z,195.80
2023-04-01T12:23:48.084Z,201.00
2023-04-01T12:24:48.116Z,202.70
2023-04-01T12:25:48.071Z,201.10
2023-04-01T12:26:48.071Z,207.80
2023-04-01T12:27:48.698Z,210.70
2023-04-01T12:28:48.046Z,216.40